Time;durP1;ratioP1;P1;durP2;ratioP2;P2;SDS_P1;SDS_P2;PMS_P1;PMS_P2;Temp;Humidity;BMP_temperature;BMP_pressure;BME280_temperature;BME280_humidity;BME280_pressure;Samples;Min_cycle;Max_cycle;Signal;HPM_P1;HPM_P2
2023/03/29 00:01:55;;;;;;;;;14.75;11.25;;;;;13.06;49.30;101010.91;5066205;28;46603;-77
2023/03/29 00:04:20;;;;;;;;;13.75;12.25;;;;;13.06;49.34;101010.06;5075335;28;45707;-75
2023/03/29 00:06:46;;;;;;;;;15.50;14.25;;;;;13.09;49.31;101000.16;5091025;27;45513;-72
2023/03/29 00:09:14;;;;;;;;;14.25;12.25;;;;;13.07;49.56;100996.78;5074867;27;46430;-77
2023/03/29 00:11:40;;;;;;;;;14.00;13.50;;;;;13.00;49.44;100985.06;5075186;27;45637;-74
2023/03/29 00:14:05;;;;;;;;;13.00;11.25;;;;;13.08;49.18;100993.19;5075328;28;45632;-75
2023/03/29 00:16:30;;;;;;;;;12.50;11.00;;;;;13.11;49.44;100992.16;5075230;28;46417;-74
2023/03/29 00:18:56;;;;;;;;;11.00;10.00;;;;;13.04;49.35;100979.47;5075240;28;45844;-73
2023/03/29 00:21:22;;;;;;;;;12.25;11.25;;;;;13.09;49.35;101000.16;5075349;28;45616;-75
2023/03/29 00:23:47;;;;;;;;;12.75;11.00;;;;;13.06;49.15;100989.03;5075150;28;45436;-75
2023/03/29 00:26:12;;;;;;;;;12.00;11.00;;;;;13.08;49.19;100992.38;5090353;27;47181;-76
2023/03/29 00:32:01;;;;;;;;;14.50;13.00;;;;;13.07;49.58;100995.94;5074548;28;45911;-76
2023/03/29 00:34:29;;;;;;;;;14.75;12.50;;;;;13.00;49.35;100982.44;5074671;27;45763;-75
2023/03/29 00:36:56;;;;;;;;;15.75;11.75;;;;;13.08;49.07;100992.38;5074523;27;46620;-77
2023/03/29 00:39:22;;;;;;;;;12.25;11.25;;;;;12.98;48.97;100968.56;5074737;27;46447;-75
2023/03/29 00:41:49;;;;;;;;;13.75;11.75;;;;;13.14;49.15;100997.19;5074421;27;45673;-74
2023/03/29 00:44:52;;;;;;;;;11.00;11.00;;;;;13.15;49.17;100985.72;5074512;27;45596;-76
2023/03/29 00:47:21;;;;;;;;;13.50;11.50;;;;;13.08;48.99;100984.47;5074782;28;47929;-74
2023/03/29 00:49:48;;;;;;;;;15.75;12.00;;;;;13.11;49.27;100986.88;5074971;27;46467;-76
2023/03/29 00:52:17;;;;;;;;;12.50;10.50;;;;;13.11;49.13;100993.00;5074233;27;45831;-74
2023/03/29 00:54:45;;;;;;;;;12.25;11.25;;;;;13.11;48.86;100993.00;5074574;27;45906;-74
2023/03/29 00:57:13;;;;;;;;;10.25;10.00;;;;;13.15;49.13;100993.63;5074623;27;46539;-74
2023/03/29 00:59:40;;;;;;;;;12.00;11.00;;;;;13.17;49.20;100989.09;5074475;27;45604;-74
2023/03/29 01:02:07;;;;;;;;;10.00;7.75;;;;;13.17;49.31;100982.00;5074053;27;45559;-74
2023/03/29 01:04:42;;;;;;;;;11.25;11.00;;;;;13.06;49.07;100978.50;5074267;27;45599;-75
2023/03/29 01:07:31;;;;;;;;;10.00;9.00;;;;;13.13;49.00;100985.84;5074074;27;47768;-76
2023/03/29 01:10:18;;;;;;;;;13.25;11.75;;;;;13.14;49.09;100984.03;5074027;27;46175;-73
2023/03/29 01:12:50;;;;;;;;;12.75;10.75;;;;;13.13;48.85;100980.56;5074071;27;45533;-74
2023/03/29 01:15:24;;;;;;;;;11.75;11.25;;;;;13.11;48.76;100977.22;5071436;27;45529;-73
2023/03/29 01:17:52;;;;;;;;;10.50;10.25;;;;;13.15;49.04;100981.31;5070538;27;46709;-73
2023/03/29 01:20:45;;;;;;;;;11.00;10.00;;;;;13.17;48.96;100979.38;5068836;27;46280;-73
2023/03/29 01:23:37;;;;;;;;;9.50;8.75;;;;;13.18;48.73;100969.69;5070965;27;45787;-74
2023/03/29 01:26:21;;;;;;;;;9.25;8.25;;;;;13.17;48.67;100973.31;5007924;28;46362;-73
2023/03/29 01:28:52;;;;;;;;;10.50;8.75;;;;;13.12;48.60;100964.94;5008479;28;46374;-74
2023/03/29 01:31:33;;;;;;;;;8.75;8.00;;;;;13.12;48.93;100968.38;5008377;28;46131;-73
2023/03/29 01:34:26;;;;;;;;;11.75;9.00;;;;;13.13;48.91;100956.06;5011510;28;45791;-72
2023/03/29 01:37:18;;;;;;;;;9.25;8.25;;;;;13.13;48.60;100961.31;5011869;28;45703;-76
2023/03/29 01:39:45;;;;;;;;;10.00;9.00;;;;;13.13;48.57;100959.53;5011098;28;46603;-75
2023/03/29 01:42:25;;;;;;;;;9.25;9.25;;;;;13.13;48.81;100956.06;5011064;28;45609;-73
2023/03/29 01:45:08;;;;;;;;;9.00;8.50;;;;;13.08;48.51;100952.91;5010959;28;45650;-76
2023/03/29 01:47:53;;;;;;;;;9.25;8.00;;;;;13.15;48.55;100947.09;5011316;28;45849;-75
2023/03/29 01:50:33;;;;;;;;;8.75;8.00;;;;;13.11;49.22;100950.06;5011400;28;46723;-75
2023/03/29 01:53:08;;;;;;;;;8.00;8.00;;;;;13.06;48.71;100932.00;5010882;28;47441;-72
2023/03/29 01:55:38;;;;;;;;;8.00;7.00;;;;;13.14;48.91;100950.69;5010804;28;45737;-72
2023/03/29 02:01:30;;;;;;;;;7.00;6.00;;;;;13.06;49.29;100947.78;5010620;28;45670;-74
2023/03/29 02:04:02;;;;;;;;;10.75;9.00;;;;;13.12;49.06;100957.84;5061647;28;46346;-74
2023/03/29 02:06:31;;;;;;;;;10.75;9.75;;;;;13.13;48.99;100962.16;5073317;27;45828;-73
2023/03/29 02:08:57;;;;;;;;;10.25;10.00;;;;;13.14;48.92;100963.00;5073453;27;45525;-72
2023/03/29 02:11:26;;;;;;;;;10.50;9.00;;;;;13.15;49.46;100955.00;5073312;28;46467;-76
2023/03/29 02:17:25;;;;;;;;;9.00;8.00;;;;;13.16;49.34;100961.94;5073195;28;45545;-75
2023/03/29 02:19:56;;;;;;;;;8.50;7.00;;;;;13.16;49.26;100964.56;5073758;28;45685;-77
2023/03/29 02:22:32;;;;;;;;;10.00;10.00;;;;;13.17;49.30;100950.44;5073242;27;46243;-77
2023/03/29 02:25:02;;;;;;;;;8.75;8.25;;;;;13.11;49.53;100939.53;5073385;28;46099;-77
2023/03/29 02:27:28;;;;;;;;;14.75;11.50;;;;;13.13;49.33;100940.28;5072079;28;45669;-74
2023/03/29 02:33:20;;;;;;;;;9.00;8.25;;;;;13.15;49.80;100931.31;5076281;28;46044;-74
2023/03/29 02:36:00;;;;;;;;;11.75;11.00;;;;;13.17;49.33;100937.28;5076730;27;46348;-74
2023/03/29 02:38:26;;;;;;;;;13.00;9.50;;;;;13.15;49.50;100927.84;5076476;27;45749;-72
2023/03/29 02:40:54;;;;;;;;;11.25;9.00;;;;;13.17;49.51;100934.66;5076780;27;45722;-75
2023/03/29 02:43:22;;;;;;;;;13.50;10.25;;;;;13.14;49.73;100921.75;5076381;28;46665;-75
2023/03/29 02:45:49;;;;;;;;;11.75;10.75;;;;;13.15;49.68;100915.53;5076388;27;45696;-76
2023/03/29 02:48:19;;;;;;;;;10.75;8.75;;;;;13.14;49.60;100913.00;5076636;27;45452;-75
2023/03/29 02:50:49;;;;;;;;;9.25;8.50;;;;;13.11;49.67;100905.34;5076466;27;45651;-76
2023/03/29 02:53:21;;;;;;;;;11.50;10.00;;;;;13.11;49.52;100908.81;5076244;27;46737;-78
2023/03/29 02:55:47;;;;;;;;;13.00;11.00;;;;;13.08;50.12;100911.66;5075948;27;46423;-78
2023/03/29 02:58:14;;;;;;;;;12.00;9.00;;;;;13.05;50.14;100909.28;5075746;27;45547;-77
2023/03/29 03:04:40;;;;;;;;;10.75;10.00;;;;;13.03;50.03;100912.00;5071210;28;46365;-77
2023/03/29 03:07:06;;;;;;;;;9.00;9.00;;;;;13.02;50.11;100896.34;5076165;27;46135;-78
2023/03/29 03:09:31;;;;;;;;;1.25;1.00;;;;;12.95;50.31;100903.03;5075667;27;45529;-77
2023/03/29 03:11:56;;;;;;;;;10.00;9.50;;;;;12.99;50.13;100902.69;5076122;28;45498;-74
2023/03/29 03:14:22;;;;;;;;;11.75;10.00;;;;;13.03;50.03;100917.28;5075751;27;46614;-75
2023/03/29 03:16:48;;;;;;;;;10.75;9.00;;;;;13.03;50.24;100904.13;5075682;27;47005;-75
2023/03/29 03:19:14;;;;;;;;;9.75;9.00;;;;;13.05;50.46;100917.16;5075895;27;45927;-73
2023/03/29 03:21:39;;;;;;;;;8.25;7.50;;;;;13.09;50.48;100908.06;5076276;27;45660;-73
2023/03/29 03:24:06;;;;;;;;;8.00;8.00;;;;;13.12;50.49;100897.34;5075965;28;46560;-74
2023/03/29 03:26:32;;;;;;;;;13.50;10.25;;;;;13.12;50.55;100889.44;5078828;27;46392;-73
2023/03/29 03:35:23;;;;;;;;;11.75;10.25;;;;;13.14;50.56;100908.59;5075757;28;45489;-74
2023/03/29 03:37:49;;;;;;;;;11.75;11.50;;;;;13.15;50.78;100901.53;5075902;27;45983;-74
2023/03/29 03:40:14;;;;;;;;;12.00;11.00;;;;;13.11;50.98;100894.81;5075810;27;45678;-75
2023/03/29 03:42:40;;;;;;;;;10.25;9.50;;;;;13.13;51.04;100899.03;5073471;28;45912;-72
2023/03/29 03:45:07;;;;;;;;;10.25;9.25;;;;;13.14;51.17;100907.75;5075257;27;45578;-74
2023/03/29 03:47:34;;;;;;;;;11.00;10.75;;;;;13.12;51.04;100888.63;5074852;27;46127;-75
2023/03/29 03:49:59;;;;;;;;;10.25;9.00;;;;;13.15;50.87;100893.66;5075334;27;45658;-75
2023/03/29 03:52:25;;;;;;;;;9.25;9.25;;;;;13.17;50.93;100899.66;5075778;27;46094;-77
2023/03/29 03:54:50;;;;;;;;;8.00;7.75;;;;;13.17;51.40;100903.09;5075239;27;47206;-75
2023/03/29 03:57:16;;;;;;;;;9.00;8.25;;;;;13.17;51.64;100900.44;5075157;27;46932;-75
2023/03/29 03:59:43;;;;;;;;;8.00;7.00;;;;;13.15;51.61;100885.75;5075108;27;45693;-74
2023/03/29 04:02:09;;;;;;;;;10.00;9.00;;;;;13.18;51.95;100894.25;5075381;27;45408;-74
2023/03/29 04:04:34;;;;;;;;;10.00;8.25;;;;;13.17;51.46;100891.75;5074676;28;45599;-74
2023/03/29 04:07:03;;;;;;;;;10.00;8.50;;;;;13.16;52.35;100896.16;5075338;27;45632;-75
2023/03/29 04:09:30;;;;;;;;;5.50;5.00;;;;;13.15;52.05;100896.28;5074991;27;45758;-73
2023/03/29 04:11:56;;;;;;;;;9.25;8.75;;;;;13.17;52.33;100892.56;5075097;27;45888;-73
2023/03/29 04:14:21;;;;;;;;;12.00;11.25;;;;;13.17;52.98;100895.19;5090628;27;46293;-72
2023/03/29 04:20:11;;;;;;;;;16.25;11.75;;;;;13.19;53.13;100884.56;5074696;28;45581;-73
2023/03/29 04:22:37;;;;;;;;;17.75;16.50;;;;;13.21;53.14;100888.75;5074693;27;45858;-74
2023/03/29 04:25:04;;;;;;;;;11.25;10.75;;;;;13.20;53.60;100880.97;5074407;27;46599;-74
2023/03/29 04:27:29;;;;;;;;;22.25;19.25;;;;;13.25;53.86;100879.66;5090435;27;47646;-73
2023/03/29 04:29:55;;;;;;;;;6.50;6.50;;;;;13.24;53.27;100879.78;5074859;27;45677;-72
2023/03/29 04:32:20;;;;;;;;;5.00;4.50;;;;;13.25;53.65;100881.47;5074863;28;45583;-72
2023/03/29 04:34:45;;;;;;;;;8.50;8.00;;;;;13.25;53.20;100874.41;5074329;28;47064;-72
2023/03/29 04:37:11;;;;;;;;;40.75;33.25;;;;;13.30;53.21;100882.78;5074331;27;46220;-75
2023/03/29 04:39:37;;;;;;;;;27.00;20.50;;;;;13.31;53.08;100875.72;5074292;28;47924;-74
2023/03/29 04:42:03;;;;;;;;;11.00;9.75;;;;;13.36;53.52;100882.28;5074787;27;45527;-74
2023/03/29 04:44:32;;;;;;;;;9.00;9.00;;;;;13.37;53.31;100883.13;5074532;27;45591;-72
2023/03/29 04:50:19;;;;;;;;;8.50;6.25;;;;;13.39;53.40;100879.41;5074209;28;45643;-73
2023/03/29 04:52:44;;;;;;;;;31.00;26.00;;;;;13.39;53.55;100881.19;5072971;28;45800;-74
2023/03/29 04:55:10;;;;;;;;;10.50;9.75;;;;;13.43;53.48;100887.91;5088416;27;47143;-75
2023/03/29 04:57:36;;;;;;;;;7.50;7.25;;;;;13.38;54.27;100879.56;5072860;28;46613;-73
2023/03/29 05:00:12;;;;;;;;;6.00;6.00;;;;;13.25;54.94;100855.97;5074051;28;45617;-77
2023/03/29 05:06:07;;;;;;;;;10.50;8.50;;;;;13.26;56.63;100885.75;5064586;28;45804;-75
2023/03/29 05:08:34;;;;;;;;;6.75;6.50;;;;;13.29;57.40;100896.03;5073977;27;46245;-77
2023/03/29 05:11:00;;;;;;;;;5.50;4.00;;;;;13.19;58.12;100901.19;5074488;27;45588;-75
2023/03/29 05:13:25;;;;;;;;;13.50;12.50;;;;;12.95;58.17;100888.09;5074340;27;45550;-78
2023/03/29 05:15:51;;;;;;;;;11.00;8.75;;;;;12.97;57.88;100895.84;5074067;27;46441;-74
2023/03/29 05:18:16;;;;;;;;;9.75;9.00;;;;;13.02;57.88;100884.03;5072297;28;46511;-74
2023/03/29 05:20:42;;;;;;;;;7.00;6.75;;;;;13.10;57.67;100880.81;5074220;28;45632;-75
2023/03/29 05:23:07;;;;;;;;;11.75;11.00;;;;;13.07;57.43;100873.16;5073939;28;45530;-75
2023/03/29 05:25:33;;;;;;;;;17.00;16.50;;;;;13.18;57.07;100873.19;5073978;27;45591;-71
2023/03/29 05:27:58;;;;;;;;;22.00;20.50;;;;;13.23;57.21;100876.31;5073753;27;46976;-71
2023/03/29 05:30:24;;;;;;;;;15.50;14.00;;;;;13.21;57.29;100867.72;5072563;28;45670;-70
2023/03/29 05:36:13;;;;;;;;;11.00;10.50;;;;;13.38;56.64;100875.13;5073636;28;45573;-70
2023/03/29 05:38:40;;;;;;;;;8.25;8.00;;;;;13.39;56.92;100857.50;5073568;27;46243;-70
2023/03/29 05:41:06;;;;;;;;;13.75;10.50;;;;;13.43;56.72;100869.50;5073443;27;45752;-71
2023/03/29 05:43:32;;;;;;;;;12.00;11.00;;;;;13.45;56.57;100862.31;5073775;27;45786;-71
2023/03/29 05:45:58;;;;;;;;;11.25;10.00;;;;;13.48;56.72;100858.59;5073603;27;46655;-71
2023/03/29 05:48:26;;;;;;;;;12.50;10.75;;;;;13.51;56.60;100864.44;5073268;27;45939;-72
2023/03/29 05:50:53;;;;;;;;;2.75;0.75;;;;;13.53;56.47;100873.06;5073532;27;45812;-71
2023/03/29 05:53:20;;;;;;;;;9.25;9.00;;;;;13.55;56.72;100878.22;5088532;27;45739;-71
2023/03/29 05:55:46;;;;;;;;;9.00;9.00;;;;;13.55;56.05;100870.34;5073372;27;47585;-71
2023/03/29 05:58:13;;;;;;;;;10.00;9.25;;;;;13.59;56.47;100877.03;5088994;27;46957;-72
2023/03/29 06:00:39;;;;;;;;;10.00;9.00;;;;;13.61;56.68;100877.72;5073333;27;45826;-70
2023/03/29 06:06:26;;;;;;;;;11.00;9.75;;;;;13.61;56.46;100886.44;5068824;28;46021;-71
2023/03/29 06:08:51;;;;;;;;;10.50;9.00;;;;;13.63;56.35;100881.06;5092481;27;46160;-72
2023/03/29 06:11:17;;;;;;;;;9.75;8.50;;;;;13.59;56.52;100864.69;5076892;28;45695;-72
2023/03/29 06:13:42;;;;;;;;;9.25;8.25;;;;;13.65;56.36;100873.91;5077108;27;45750;-71
2023/03/29 06:16:09;;;;;;;;;7.75;7.25;;;;;13.67;56.82;100871.97;5076620;27;45594;-72
2023/03/29 06:21:56;;;;;;;;;28.25;23.75;;;;;13.70;56.93;100867.31;5076504;28;45536;-71
2023/03/29 06:24:21;;;;;;;;;10.25;9.25;;;;;13.69;56.75;100859.53;5076802;28;45581;-71
2023/03/29 06:26:46;;;;;;;;;9.25;9.25;;;;;13.71;56.57;100861.06;5076396;28;47434;-74
2023/03/29 06:29:12;;;;;;;;;8.25;8.25;;;;;13.71;56.70;100860.25;5076334;27;45984;-71
2023/03/29 06:31:37;;;;;;;;;8.25;8.00;;;;;13.75;56.85;100862.50;5076284;28;45610;-71
2023/03/29 06:34:03;;;;;;;;;7.00;6.25;;;;;13.73;56.87;100856.53;5076325;27;45565;-70
2023/03/29 06:36:29;;;;;;;;;8.00;6.00;;;;;13.79;56.81;100869.19;5092124;27;46489;-73
2023/03/29 06:38:54;;;;;;;;;8.00;6.25;;;;;13.82;57.03;100868.09;5076648;27;46284;-72
2023/03/29 06:41:20;;;;;;;;;6.00;5.75;;;;;13.83;57.37;100880.31;5076214;27;45591;-70
2023/03/29 06:43:45;;;;;;;;;7.50;5.75;;;;;13.84;56.84;100879.34;5075881;28;45870;-71
2023/03/29 06:46:11;;;;;;;;;9.50;8.00;;;;;13.84;57.18;100882.84;5076113;28;46711;-70
2023/03/29 06:51:58;;;;;;;;;10.00;6.00;;;;;13.87;56.77;100868.59;5076287;28;45624;-71
2023/03/29 06:54:24;;;;;;;;;6.00;6.00;;;;;13.93;57.09;100867.25;5076398;27;45591;-72
2023/03/29 06:56:50;;;;;;;;;8.00;6.00;;;;;13.95;57.28;100866.16;5075942;28;47359;-69
2023/03/29 06:59:15;;;;;;;;;8.00;6.50;;;;;13.96;56.92;100861.72;5075875;27;46456;-71
2023/03/29 07:01:41;;;;;;;;;9.00;8.00;;;;;13.98;57.13;100860.63;5075772;28;45696;-71
2023/03/29 07:07:42;;;;;;;;;5.50;5.50;;;;;14.08;57.36;100858.94;5065362;28;45940;-71
2023/03/29 07:10:08;;;;;;;;;9.25;9.00;;;;;14.12;57.09;100872.69;5075811;27;47112;-71
2023/03/29 07:12:33;;;;;;;;;10.00;9.00;;;;;14.16;56.87;100879.38;5075796;27;45530;-71
2023/03/29 07:14:58;;;;;;;;;9.00;6.25;;;;;14.19;57.10;100872.09;5075879;27;45609;-71
2023/03/29 07:17:24;;;;;;;;;6.25;6.25;;;;;14.22;57.06;100874.47;5074480;27;46827;-71
2023/03/29 07:19:49;;;;;;;;;11.00;9.00;;;;;14.25;57.15;100882.09;5075650;27;45971;-71
2023/03/29 07:22:15;;;;;;;;;9.00;8.50;;;;;14.26;56.68;100883.78;5075374;28;45610;-69
2023/03/29 07:24:40;;;;;;;;;10.00;8.75;;;;;14.28;56.88;100881.88;5075904;27;45737;-71
2023/03/29 07:27:07;;;;;;;;;11.00;8.75;;;;;14.30;56.95;100877.28;5075867;28;46112;-71
2023/03/29 07:29:32;;;;;;;;;10.50;8.75;;;;;14.33;56.80;100872.72;5075325;27;46277;-71
2023/03/29 07:31:59;;;;;;;;;9.50;8.25;;;;;14.33;56.67;100878.00;5075622;28;45601;-71
2023/03/29 07:37:46;;;;;;;;;9.50;9.50;;;;;14.32;57.15;100874.53;5075340;28;45986;-71
2023/03/29 07:40:16;;;;;;;;;8.50;7.00;;;;;14.34;57.08;100877.03;5091050;27;46340;-71
2023/03/29 07:42:43;;;;;;;;;12.00;8.50;;;;;14.36;57.17;100872.50;5075135;27;45650;-71
2023/03/29 07:45:10;;;;;;;;;7.50;7.00;;;;;14.34;57.45;100855.97;5075468;27;45720;-72
2023/03/29 07:47:35;;;;;;;;;9.75;8.25;;;;;14.40;58.00;100871.31;5075101;27;45587;-72
2023/03/29 07:50:01;;;;;;;;;8.25;8.25;;;;;14.38;58.15;100863.50;5075242;28;46157;-71
2023/03/29 07:52:28;;;;;;;;;7.25;6.25;;;;;14.45;57.96;100864.69;5075139;27;45785;-71
2023/03/29 07:54:54;;;;;;;;;7.25;7.25;;;;;14.47;57.37;100865.38;5075309;27;45612;-71
2023/03/29 07:57:21;;;;;;;;;8.50;8.50;;;;;14.54;57.67;100871.81;5075423;28;46022;-70
2023/03/29 07:59:46;;;;;;;;;10.00;9.00;;;;;14.57;57.46;100881.28;5075097;27;47254;-70
2023/03/29 08:02:11;;;;;;;;;11.50;9.75;;;;;14.60;57.56;100871.31;5074791;27;45599;-72
2023/03/29 08:07:59;;;;;;;;;10.00;6.50;;;;;14.69;57.54;100883.72;5069672;28;45700;-70
2023/03/29 08:10:25;;;;;;;;;8.50;7.00;;;;;14.75;57.36;100886.81;5074927;27;46079;-71
2023/03/29 08:12:51;;;;;;;;;11.00;7.00;;;;;14.76;57.66;100885.84;5075174;27;45697;-73
2023/03/29 08:15:17;;;;;;;;;9.00;7.00;;;;;14.81;57.75;100881.84;5075035;27;45684;-71
2023/03/29 08:17:42;;;;;;;;;9.25;8.50;;;;;14.85;57.88;100885.91;5074934;27;46305;-72
2023/03/29 08:20:11;;;;;;;;;5.75;5.75;;;;;14.88;57.87;100890.09;5074918;27;45628;-71
2023/03/29 08:22:36;;;;;;;;;10.00;7.50;;;;;14.93;58.03;100880.81;5073243;28;45780;-71
2023/03/29 08:25:03;;;;;;;;;6.00;5.00;;;;;14.94;58.20;100871.13;5090662;27;45794;-72
2023/03/29 08:27:29;;;;;;;;;6.25;5.25;;;;;15.03;58.39;100879.06;5074905;27;45617;-71
2023/03/29 08:29:54;;;;;;;;;7.00;6.00;;;;;15.07;58.29;100883.13;5074251;27;47270;-71
2023/03/29 08:32:19;;;;;;;;;5.75;5.50;;;;;15.11;58.56;100881.88;5074538;28;45704;-71
2023/03/29 08:38:07;;;;;;;;;5.50;4.50;;;;;15.19;58.65;100883.03;5074411;28;45545;-71
2023/03/29 08:40:33;;;;;;;;;3.00;2.50;;;;;15.23;59.01;100884.44;5074220;27;45542;-71
2023/03/29 08:43:36;;;;;;;;;5.75;4.50;;;;;15.27;58.84;100878.78;5074428;27;45692;-71
2023/03/29 08:46:17;;;;;;;;;6.00;6.00;;;;;15.35;58.94;100872.81;5074824;28;45561;-70
2023/03/29 08:48:52;;;;;;;;;7.75;5.50;;;;;15.37;59.04;100869.09;5074210;28;46417;-70
2023/03/29 08:51:28;;;;;;;;;7.25;5.50;;;;;15.42;59.21;100861.59;5074488;27;45903;-70
2023/03/29 08:54:04;;;;;;;;;7.00;6.00;;;;;15.50;58.73;100864.41;5089789;27;45812;-70
2023/03/29 08:56:33;;;;;;;;;6.75;5.25;;;;;15.57;58.79;100856.81;5090158;27;45717;-70
2023/03/29 08:59:00;;;;;;;;;5.00;4.75;;;;;15.62;58.54;100856.41;5074432;27;45616;-70
2023/03/29 09:01:33;;;;;;;;;6.75;6.75;;;;;15.64;58.48;100850.03;5074038;27;46312;-69
2023/03/29 09:04:07;;;;;;;;;5.00;5.00;;;;;15.75;58.53;100864.94;5073939;27;45763;-71
2023/03/29 09:06:33;;;;;;;;;5.75;5.00;;;;;15.77;58.64;100865.59;5074489;28;45715;-71
2023/03/29 09:09:00;;;;;;;;;7.00;5.75;;;;;15.86;58.56;100872.75;5073732;27;46339;-71
2023/03/29 09:11:49;;;;;;;;;5.25;4.50;;;;;15.90;58.42;100867.03;5073894;27;46000;-70
2023/03/29 09:14:30;;;;;;;;;7.00;4.00;;;;;15.97;58.48;100869.13;5073744;28;45742;-69
2023/03/29 09:17:12;;;;;;;;;10.00;5.25;;;;;16.04;58.44;100868.44;5074053;27;45787;-69
2023/03/29 09:20:15;;;;;;;;;5.25;4.00;;;;;16.12;58.50;100860.66;5073757;27;47222;-71
2023/03/29 09:22:57;;;;;;;;;5.75;5.00;;;;;16.21;58.54;100864.28;5073891;27;45965;-70
2023/03/29 09:25:28;;;;;;;;;4.75;4.00;;;;;16.27;58.50;100856.63;5074180;27;45728;-70
2023/03/29 09:28:10;;;;;;;;;4.00;4.00;;;;;16.31;58.24;100854.53;5089773;27;45568;-70
2023/03/29 09:30:41;;;;;;;;;4.00;4.00;;;;;16.40;57.97;100864.28;5074032;27;45737;-70
2023/03/29 09:33:06;;;;;;;;;6.00;5.25;;;;;16.47;58.26;100857.44;5073711;27;47192;-69
2023/03/29 09:35:37;;;;;;;;;5.00;5.00;;;;;16.49;58.06;100837.00;5073952;27;45570;-71
2023/03/29 09:38:06;;;;;;;;;6.00;5.00;;;;;16.58;57.80;100852.00;5073877;27;45622;-70
2023/03/29 09:40:42;;;;;;;;;4.50;4.00;;;;;16.65;57.85;100847.00;5074398;27;45716;-71
2023/03/29 09:43:12;;;;;;;;;5.50;4.00;;;;;16.68;57.97;100844.91;5077153;27;46263;-71
2023/03/29 09:45:39;;;;;;;;;5.75;4.50;;;;;16.73;58.17;100845.31;5077391;27;45778;-71
2023/03/29 09:48:15;;;;;;;;;3.50;3.00;;;;;16.86;57.81;100842.38;5077518;27;45733;-70
2023/03/29 09:50:50;;;;;;;;;4.75;3.75;;;;;16.91;57.89;100842.78;5077107;28;45664;-71
2023/03/29 09:53:17;;;;;;;;;5.25;4.00;;;;;17.01;57.60;100834.78;5077147;27;45959;-70
2023/03/29 09:55:45;;;;;;;;;3.25;3.00;;;;;17.06;57.53;100835.19;5077129;27;45585;-70
2023/03/29 09:58:17;;;;;;;;;6.50;5.25;;;;;17.10;57.71;100837.44;5077233;27;45579;-71
2023/03/29 10:00:43;;;;;;;;;4.00;3.25;;;;;17.14;57.58;100830.00;5076692;27;47393;-70
2023/03/29 10:03:20;;;;;;;;;5.00;4.00;;;;;17.11;58.01;100819.72;5076587;27;47022;-70
2023/03/29 10:05:48;;;;;;;;;6.00;4.50;;;;;17.20;57.70;100832.91;5076753;27;45666;-69
2023/03/29 10:08:39;;;;;;;;;4.00;3.00;;;;;17.24;57.37;100828.16;5092604;27;45713;-71
2023/03/29 10:11:16;;;;;;;;;4.00;3.00;;;;;17.24;57.47;100827.31;5034147;28;46579;-69
2023/03/29 10:13:45;;;;;;;;;3.00;3.00;;;;;17.26;57.38;100818.25;5033811;28;45961;-72
2023/03/29 10:16:23;;;;;;;;;4.00;4.00;;;;;17.35;57.73;100820.03;5034231;28;45748;-69
2023/03/29 10:22:17;;;;;;;;;4.00;4.00;;;;;17.48;57.18;100824.97;5034034;28;45945;-71
2023/03/29 10:24:48;;;;;;;;;5.25;4.00;;;;;17.51;57.14;100806.97;5034144;28;46539;-70
2023/03/29 10:27:14;;;;;;;;;3.50;3.50;;;;;17.55;56.94;100803.03;5017681;28;45725;-71
2023/03/29 10:29:42;;;;;;;;;4.75;4.00;;;;;17.60;56.83;100803.44;5034073;28;45540;-70
2023/03/29 10:32:37;;;;;;;;;4.00;3.00;;;;;17.66;56.60;100796.72;5033973;28;45742;-71
2023/03/29 10:38:27;;;;;;;;;3.00;2.00;;;;;17.75;55.51;100803.78;4954862;28;45570;-71
2023/03/29 10:40:54;;;;;;;;;3.25;3.25;;;;;17.80;55.71;100798.84;4955005;28;45661;-72
2023/03/29 10:43:28;;;;;;;;;5.25;3.00;;;;;17.88;55.34;100798.09;4954677;28;46733;-72
2023/03/29 10:45:55;;;;;;;;;4.00;3.00;;;;;17.96;54.67;100795.53;4954895;28;46600;-70
2023/03/29 10:48:28;;;;;;;;;3.75;3.00;;;;;18.01;54.28;100795.91;4991150;28;45647;-71
2023/03/29 10:54:20;;;;;;;;;3.00;3.00;;;;;18.14;53.09;100782.25;5013583;28;45970;-71
2023/03/29 10:56:48;;;;;;;;;4.00;3.75;;;;;18.18;53.16;100779.16;5013363;28;46109;-70
2023/03/29 10:59:23;;;;;;;;;2.75;2.75;;;;;18.24;51.63;100778.53;5013525;28;45570;-71
2023/03/29 11:02:03;;;;;;;;;2.75;1.50;;;;;18.30;50.47;100790.34;5013354;28;45534;-72
2023/03/29 11:08:27;;;;;;;;;3.25;2.00;;;;;18.47;49.42;100776.19;5002004;28;46155;-71
2023/03/29 11:11:22;;;;;;;;;2.25;1.25;;;;;18.52;49.24;100760.63;4989617;28;45805;-71
2023/03/29 11:14:04;;;;;;;;;4.50;3.00;;;;;18.68;48.03;100760.75;5035216;28;45497;-72
2023/03/29 11:16:34;;;;;;;;;2.00;2.00;;;;;18.75;47.60;100759.16;5035209;28;46797;-71
2023/03/29 11:26:03;;;;;;;;;2.75;2.75;;;;;19.05;46.31;100752.50;5035604;28;45699;-72
2023/03/29 11:28:35;;;;;;;;;2.75;2.50;;;;;19.16;46.45;100754.03;5035464;28;46193;-70
2023/03/29 11:31:29;;;;;;;;;2.75;2.75;;;;;19.25;46.25;100750.41;5035313;28;45838;-72
2023/03/29 11:37:34;;;;;;;;;2.75;2.25;;;;;19.40;46.30;100755.91;5013398;28;45731;-70
2023/03/29 11:40:21;;;;;;;;;2.25;2.00;;;;;19.44;45.48;100742.13;5012900;28;46893;-71
2023/03/29 11:42:49;;;;;;;;;3.50;2.50;;;;;19.49;45.58;100757.63;5012405;28;46175;-71
2023/03/29 11:45:25;;;;;;;;;2.25;2.25;;;;;19.52;45.16;100752.00;5012814;28;45545;-71
2023/03/29 11:47:52;;;;;;;;;3.75;3.50;;;;;19.57;45.24;100749.66;5012819;28;45725;-72
2023/03/29 11:53:49;;;;;;;;;2.00;2.00;;;;;19.66;44.19;100733.56;5012326;28;45899;-69
2023/03/29 11:56:25;;;;;;;;;1.25;1.00;;;;;19.70;43.60;100723.47;5012523;28;45770;-71
2023/03/29 11:58:56;;;;;;;;;3.00;3.00;;;;;19.74;43.82;100716.81;5013119;28;46141;-70
2023/03/29 12:01:36;;;;;;;;;2.75;2.25;;;;;19.83;43.48;100710.47;5012818;28;45628;-74
2023/03/29 12:04:10;;;;;;;;;2.00;2.00;;;;;19.90;43.41;100706.16;5011700;28;45986;-72
2023/03/29 12:10:02;;;;;;;;;3.75;3.00;;;;;20.06;43.60;100686.69;5025501;28;45759;-71
2023/03/29 12:12:46;;;;;;;;;4.25;3.00;;;;;20.13;43.55;100686.88;5032505;28;46136;-71
2023/03/29 12:15:20;;;;;;;;;0.00;0.00;;;;;20.19;43.43;100679.00;5034597;28;46946;-72
2023/03/29 12:18:00;;;;;;;;;4.00;4.00;;;;;20.30;42.89;100683.16;5049990;28;45601;-72
2023/03/29 12:20:31;;;;;;;;;4.50;4.00;;;;;20.37;42.53;100677.03;5034566;28;45738;-71
2023/03/29 12:22:56;;;;;;;;;2.25;2.25;;;;;20.43;42.70;100672.84;5034039;28;46325;-72
2023/03/29 12:25:51;;;;;;;;;3.50;3.00;;;;;20.48;42.29;100660.69;5034662;28;45563;-71
2023/03/29 12:28:35;;;;;;;;;2.75;2.75;;;;;20.52;42.07;100651.34;5034514;28;45646;-71
2023/03/29 12:31:22;;;;;;;;;3.25;2.75;;;;;20.57;42.33;100650.81;5034189;28;45757;-71
2023/03/29 12:34:22;;;;;;;;;2.00;1.75;;;;;20.64;41.65;100650.97;5033966;28;46655;-71
2023/03/29 12:37:22;;;;;;;;;3.00;2.50;;;;;20.70;40.67;100648.44;5032151;28;46523;-71
2023/03/29 12:39:49;;;;;;;;;1.50;1.25;;;;;20.75;40.62;100639.94;5012092;28;45859;-70
2023/03/29 12:42:18;;;;;;;;;1.00;0.50;;;;;20.78;40.32;100640.41;5012013;28;46028;-72
2023/03/29 12:44:57;;;;;;;;;2.75;1.75;;;;;20.81;40.32;100624.09;5012079;28;46446;-70
2023/03/29 12:47:26;;;;;;;;;1.50;1.50;;;;;20.84;40.11;100622.91;5011875;28;47061;-71
2023/03/29 12:49:55;;;;;;;;;3.00;2.50;;;;;20.92;39.98;100626.38;5012062;28;45759;-71
2023/03/29 12:52:26;;;;;;;;;3.00;3.00;;;;;20.99;40.17;100621.16;5011937;28;45671;-71
2023/03/29 12:54:53;;;;;;;;;2.25;1.75;;;;;21.04;39.70;100621.47;5012110;28;46377;-73
2023/03/29 12:57:25;;;;;;;;;2.00;2.00;;;;;21.09;40.26;100621.78;5011964;28;45850;-71
2023/03/29 12:59:51;;;;;;;;;2.00;2.00;;;;;21.11;39.89;100611.75;5011634;28;45709;-71
2023/03/29 13:02:16;;;;;;;;;1.75;1.75;;;;;21.18;39.71;100612.75;5011607;28;45932;-70
2023/03/29 13:04:42;;;;;;;;;2.00;2.00;;;;;21.20;39.35;100604.56;5011595;28;46282;-71
2023/03/29 13:07:22;;;;;;;;;2.00;2.00;;;;;21.22;39.16;100621.19;5011767;28;45816;-71